Time;durP1;ratioP1;P1;durP2;ratioP2;P2;SDS_P1;SDS_P2;PMS_P1;PMS_P2;Temp;Humidity;BMP_temperature;BMP_pressure;BME280_temperature;BME280_humidity;BME280_pressure;Samples;Min_cycle;Max_cycle;Signal;HPM_P1;HPM_P2
2023/09/27 00:00:48;;;;;;;0.50;0.50;;;11.50;99.90;;;;;;4967389;28;20030;-81
2023/09/27 00:03:14;;;;;;;0.70;0.50;;;11.50;99.90;;;;;;4963427;28;20054;-81
2023/09/27 00:05:40;;;;;;;0.32;0.32;;;11.60;99.90;;;;;;4944401;28;20043;-81
2023/09/27 00:08:06;;;;;;;1.92;1.02;;;11.70;99.90;;;;;;4968552;28;20333;-81
2023/09/27 00:10:33;;;;;;;1.27;0.80;;;11.60;99.90;;;;;;4958816;28;20035;-81
2023/09/27 00:12:59;;;;;;;2.42;0.82;;;11.60;99.90;;;;;;4970631;28;20134;-80
2023/09/27 00:15:25;;;;;;;3.13;1.85;;;11.60;99.90;;;;;;4984269;28;20050;-81
2023/09/27 00:17:51;;;;;;;0.88;0.88;;;11.50;99.90;;;;;;4953551;28;20031;-81
2023/09/27 00:20:20;;;;;;;0.82;0.70;;;11.50;99.90;;;;;;4966907;28;20050;-81
2023/09/27 00:22:46;;;;;;;2.30;1.08;;;11.40;99.90;;;;;;4964961;28;20034;-81
2023/09/27 00:25:14;;;;;;;1.17;0.98;;;11.30;99.90;;;;;;4970558;28;20479;-81
2023/09/27 00:27:41;;;;;;;1.63;1.42;;;11.30;99.90;;;;;;4965163;28;20499;-80
2023/09/27 00:30:09;;;;;;;0.60;0.60;;;11.40;99.90;;;;;;4953841;28;20039;-81
2023/09/27 00:32:36;;;;;;;1.13;0.75;;;11.30;99.90;;;;;;4945624;28;20127;-79
2023/09/27 00:35:02;;;;;;;0.75;0.75;;;11.20;99.90;;;;;;4956097;28;20062;-81
2023/09/27 00:37:28;;;;;;;1.30;1.20;;;11.10;99.90;;;;;;4955893;28;20046;-83
2023/09/27 00:39:58;;;;;;;1.38;1.23;;;11.00;99.90;;;;;;4956736;28;20050;-81
2023/09/27 00:42:24;;;;;;;0.30;0.30;;;11.00;99.90;;;;;;4956659;28;20041;-81
2023/09/27 00:44:51;;;;;;;3.17;1.98;;;11.00;99.90;;;;;;4966125;28;20031;-80
2023/09/27 00:47:17;;;;;;;0.82;0.77;;;11.00;99.90;;;;;;4940255;28;20411;-80
2023/09/27 00:49:44;;;;;;;0.63;0.63;;;11.00;99.90;;;;;;4951418;28;20035;-80
2023/09/27 00:52:12;;;;;;;1.88;1.50;;;11.10;99.90;;;;;;4979177;28;20030;-81
2023/09/27 00:54:38;;;;;;;0.80;0.77;;;11.20;99.90;;;;;;4976566;28;20034;-80
2023/09/27 00:57:05;;;;;;;1.25;0.95;;;11.20;99.90;;;;;;4970330;28;20057;-80
2023/09/27 00:59:32;;;;;;;0.57;0.57;;;11.20;99.90;;;;;;4959860;28;20042;-80
2023/09/27 01:02:01;;;;;;;0.40;0.40;;;11.10;99.90;;;;;;4971000;28;20531;-80
2023/09/27 01:04:28;;;;;;;0.80;0.80;;;11.10;99.90;;;;;;4944252;28;20051;-80
2023/09/27 01:06:55;;;;;;;1.10;1.00;;;11.10;99.90;;;;;;4972688;28;20030;-81
2023/09/27 01:09:21;;;;;;;0.70;0.68;;;11.00;99.90;;;;;;4967046;28;20039;-78
2023/09/27 01:11:49;;;;;;;0.32;0.32;;;11.00;99.90;;;;;;4964791;28;20121;-80
2023/09/27 01:14:15;;;;;;;0.38;0.38;;;11.00;99.90;;;;;;4972718;28;20038;-80
2023/09/27 01:16:41;;;;;;;1.50;1.25;;;11.00;99.90;;;;;;4978313;28;20050;-80
2023/09/27 01:19:08;;;;;;;0.93;0.88;;;11.00;99.90;;;;;;4938865;28;20119;-80
2023/09/27 01:21:34;;;;;;;0.80;0.75;;;11.10;99.90;;;;;;4968279;28;20035;-80
2023/09/27 01:24:00;;;;;;;0.90;0.90;;;11.10;99.90;;;;;;4953202;28;20346;-81
2023/09/27 01:26:31;;;;;;;2.05;1.60;;;11.10;99.90;;;;;;4954978;28;20062;-81
2023/09/27 01:28:58;;;;;;;0.60;0.60;;;11.10;99.90;;;;;;4956269;28;20051;-80
2023/09/27 01:31:24;;;;;;;10.60;1.48;;;11.10;99.90;;;;;;4933653;28;20760;-81
2023/09/27 01:33:51;;;;;;;1.55;1.38;;;11.10;99.90;;;;;;4954571;28;20507;-81
2023/09/27 01:36:18;;;;;;;2.22;1.10;;;11.00;99.90;;;;;;4959822;28;20070;-81
2023/09/27 01:38:44;;;;;;;0.73;0.70;;;10.80;99.90;;;;;;4956444;28;20043;-81
2023/09/27 01:41:11;;;;;;;0.98;0.90;;;10.70;99.90;;;;;;4962593;28;20475;-81
2023/09/27 01:43:37;;;;;;;0.60;0.40;;;10.60;99.90;;;;;;4957696;28;20050;-81
2023/09/27 01:46:03;;;;;;;1.30;1.20;;;10.60;99.90;;;;;;4954500;28;20043;-80
2023/09/27 01:48:29;;;;;;;2.40;1.63;;;10.50;99.90;;;;;;4933964;28;20054;-81
2023/09/27 01:50:55;;;;;;;1.75;1.33;;;10.50;99.90;;;;;;4974696;28;20026;-80
2023/09/27 01:53:21;;;;;;;2.03;1.40;;;10.50;99.90;;;;;;4969438;28;20038;-80
2023/09/27 01:55:48;;;;;;;2.70;0.68;;;10.50;99.90;;;;;;4946486;28;20046;-80
2023/09/27 01:58:14;;;;;;;1.08;0.80;;;10.60;99.90;;;;;;4978976;28;20117;-81
2023/09/27 02:00:40;;;;;;;1.38;1.25;;;10.70;99.90;;;;;;4979153;28;20046;-80
2023/09/27 02:03:06;;;;;;;0.73;0.73;;;10.60;99.90;;;;;;4973544;28;20038;-81
2023/09/27 02:05:33;;;;;;;1.88;1.60;;;10.60;99.90;;;;;;4953910;28;20105;-81
2023/09/27 02:08:00;;;;;;;1.45;0.82;;;10.50;99.90;;;;;;4963309;28;20053;-81
2023/09/27 02:10:26;;;;;;;0.88;0.88;;;10.40;99.90;;;;;;4956126;28;20039;-81
2023/09/27 02:12:52;;;;;;;0.40;0.40;;;10.40;99.90;;;;;;4963684;28;20038;-81
2023/09/27 02:15:18;;;;;;;1.02;0.70;;;10.50;99.90;;;;;;4971214;28;20038;-81
2023/09/27 02:17:45;;;;;;;1.70;1.20;;;10.40;99.90;;;;;;4957755;28;20453;-80
2023/09/27 02:20:14;;;;;;;2.30;1.13;;;10.40;99.90;;;;;;4977678;28;20039;-80
2023/09/27 02:22:41;;;;;;;0.98;0.82;;;10.40;99.90;;;;;;4971250;28;20046;-80
2023/09/27 02:25:09;;;;;;;0.80;0.70;;;10.30;99.90;;;;;;4970966;28;20038;-80
2023/09/27 02:27:37;;;;;;;0.47;0.47;;;10.30;99.90;;;;;;4953817;28;20043;-81
2023/09/27 02:30:11;;;;;;;0.20;0.20;;;10.30;99.90;;;;;;4932640;28;20042;-80
2023/09/27 02:32:41;;;;;;;0.57;0.43;;;10.30;99.90;;;;;;4972660;28;20476;-81
2023/09/27 02:35:11;;;;;;;0.53;0.50;;;10.30;99.90;;;;;;4971023;28;20439;-80
2023/09/27 02:37:39;;;;;;;1.38;0.68;;;10.30;99.90;;;;;;4945048;28;20299;-80
2023/09/27 02:40:11;;;;;;;0.98;0.88;;;10.40;99.90;;;;;;4966647;28;20483;-80
2023/09/27 02:42:41;;;;;;;1.40;1.25;;;10.40;99.90;;;;;;4955321;28;20059;-80
2023/09/27 02:45:09;;;;;;;1.13;1.00;;;10.40;99.90;;;;;;4960156;28;20125;-80
2023/09/27 02:47:43;;;;;;;1.58;0.50;;;10.40;99.90;;;;;;4944386;28;20054;-83
2023/09/27 02:50:10;;;;;;;1.27;0.90;;;10.30;99.90;;;;;;4967994;28;20065;-81
2023/09/27 02:52:38;;;;;;;2.08;1.45;;;10.20;99.90;;;;;;4958912;28;20043;-82
2023/09/27 02:55:05;;;;;;;3.63;0.95;;;10.20;99.90;;;;;;4947032;28;20341;-81
2023/09/27 02:57:31;;;;;;;0.57;0.57;;;10.20;99.90;;;;;;4953133;28;20070;-81
2023/09/27 02:59:58;;;;;;;2.88;0.98;;;10.20;99.90;;;;;;4967572;28;20404;-80
2023/09/27 03:02:26;;;;;;;0.25;0.22;;;10.20;99.90;;;;;;4943911;28;20412;-80
2023/09/27 03:04:52;;;;;;;0.55;0.35;;;10.30;99.90;;;;;;4977399;28;20027;-80
2023/09/27 03:07:18;;;;;;;0.93;0.93;;;10.20;99.90;;;;;;4974036;28;20478;-80
2023/09/27 03:09:44;;;;;;;1.73;0.95;;;10.10;99.90;;;;;;4958732;28;20034;-80
2023/09/27 03:12:11;;;;;;;0.57;0.57;;;10.10;99.90;;;;;;4947840;28;20121;-81
2023/09/27 03:14:38;;;;;;;1.52;1.42;;;10.20;99.90;;;;;;4974197;28;20038;-81
2023/09/27 03:17:04;;;;;;;2.55;1.33;;;10.10;99.90;;;;;;4955372;28;20047;-81
2023/09/27 03:19:31;;;;;;;0.73;0.63;;;10.00;99.90;;;;;;4955481;28;20042;-80
2023/09/27 03:21:57;;;;;;;3.88;2.20;;;10.00;99.90;;;;;;4941888;28;20053;-81
2023/09/27 03:24:25;;;;;;;1.20;1.10;;;9.90;99.90;;;;;;4964101;28;20038;-80
2023/09/27 03:26:52;;;;;;;0.77;0.77;;;9.90;99.90;;;;;;4956091;28;20050;-81
2023/09/27 03:29:18;;;;;;;1.38;1.27;;;9.90;99.90;;;;;;4972885;28;20035;-81
2023/09/27 03:31:44;;;;;;;0.68;0.68;;;9.90;99.90;;;;;;4973092;28;20034;-81
2023/09/27 03:34:10;;;;;;;1.20;1.20;;;9.90;99.90;;;;;;4980448;28;20058;-80
2023/09/27 03:36:38;;;;;;;1.83;1.20;;;9.90;99.90;;;;;;4959174;28;20050;-82
2023/09/27 03:39:04;;;;;;;1.55;0.63;;;9.90;99.90;;;;;;4961989;28;20112;-80
2023/09/27 03:41:32;;;;;;;1.20;1.13;;;9.90;99.90;;;;;;4949862;28;20069;-80
2023/09/27 03:43:58;;;;;;;0.43;0.43;;;9.80;99.90;;;;;;4956511;28;20130;-80
2023/09/27 03:46:24;;;;;;;1.48;1.38;;;9.80;99.90;;;;;;4962903;28;20038;-80
2023/09/27 03:48:50;;;;;;;1.17;0.95;;;9.80;99.90;;;;;;4969723;28;20499;-80
2023/09/27 03:51:24;;;;;;;1.13;1.02;;;9.70;99.90;;;;;;4947223;28;20050;-80
2023/09/27 03:53:51;;;;;;;;;;;9.80;99.90;;;;;;4952372;28;20396;-80
2023/09/27 03:56:18;;;;;;;1.60;1.50;;;9.70;99.90;;;;;;4955279;28;19913;-80
2023/09/27 03:58:44;;;;;;;0.77;0.77;;;9.70;99.90;;;;;;4958205;28;20047;-80
2023/09/27 04:01:10;;;;;;;1.52;1.42;;;9.70;99.90;;;;;;4967909;28;20035;-81
2023/09/27 04:03:36;;;;;;;1.40;1.30;;;9.70;99.90;;;;;;4964261;28;20141;-78
2023/09/27 04:06:03;;;;;;;3.78;1.33;;;9.80;99.90;;;;;;4931608;28;20333;-80
2023/09/27 04:08:29;;;;;;;1.30;1.13;;;9.70;99.90;;;;;;4964009;28;20038;-79
2023/09/27 04:10:55;;;;;;;2.60;0.75;;;9.70;99.90;;;;;;4949042;28;20053;-80
2023/09/27 04:13:21;;;;;;;2.97;1.30;;;9.60;99.90;;;;;;4966451;28;20385;-81
2023/09/27 04:15:49;;;;;;;2.85;1.48;;;9.50;99.90;;;;;;4963063;28;20376;-80
2023/09/27 04:18:15;;;;;;;3.08;1.58;;;9.50;99.90;;;;;;4976302;28;20042;-80
2023/09/27 04:20:41;;;;;;;4.38;2.65;;;9.50;99.90;;;;;;4970898;28;20039;-81
2023/09/27 04:23:07;;;;;;;2.30;2.10;;;9.60;99.90;;;;;;4961394;28;20123;-79
2023/09/27 04:25:33;;;;;;;0.90;0.88;;;9.70;99.90;;;;;;4964525;28;20027;-80
2023/09/27 04:28:01;;;;;;;1.73;1.60;;;9.80;1.00;;;;;;4955976;28;20047;-79
2023/09/27 04:30:27;;;;;;;2.08;1.98;;;9.90;1.00;;;;;;4972015;28;20039;-79
2023/09/27 04:32:53;;;;;;;1.13;1.02;;;10.00;1.00;;;;;;4962422;28;20124;-79
2023/09/27 04:35:20;;;;;;;8.38;3.08;;;10.10;1.00;;;;;;4983106;28;20043;-80
2023/09/27 04:37:47;;;;;;;2.15;1.90;;;10.20;1.00;;;;;;4948601;28;20059;-80
2023/09/27 04:40:16;;;;;;;1.67;1.13;;;10.20;7.10;;;;;;4972737;28;20042;-81
2023/09/27 04:42:44;;;;;;;1.58;1.45;;;10.30;23.70;;;;;;4959334;28;20033;-81
2023/09/27 04:45:12;;;;;;;2.65;2.13;;;10.20;35.30;;;;;;4963783;28;20035;-80
2023/09/27 04:47:40;;;;;;;1.00;0.90;;;10.20;45.70;;;;;;4946369;28;20099;-80
2023/09/27 04:50:09;;;;;;;2.38;1.98;;;10.20;54.30;;;;;;4969346;28;20031;-79
2023/09/27 04:52:37;;;;;;;4.20;2.08;;;10.30;63.50;;;;;;4978412;28;20035;-79
2023/09/27 04:55:05;;;;;;;3.72;2.58;;;10.30;72.10;;;;;;4957905;28;20053;-79
2023/09/27 04:57:31;;;;;;;2.22;1.83;;;10.30;74.60;;;;;;4970399;28;20041;-79
2023/09/27 04:59:57;;;;;;;3.30;2.50;;;10.30;81.20;;;;;;4975618;28;20376;-79
2023/09/27 05:02:24;;;;;;;2.22;2.00;;;10.30;85.40;;;;;;4967671;28;20039;-78
2023/09/27 05:04:51;;;;;;;3.40;2.47;;;10.30;89.30;;;;;;4948955;28;20047;-80
2023/09/27 05:07:20;;;;;;;5.43;1.67;;;10.20;85.50;;;;;;4970599;28;20034;-81
2023/09/27 05:09:47;;;;;;;3.63;2.60;;;10.20;80.90;;;;;;4959783;28;20566;-80
2023/09/27 05:12:14;;;;;;;3.88;2.33;;;10.20;81.40;;;;;;4967431;28;20468;-80
2023/09/27 05:14:41;;;;;;;1.30;1.20;;;10.20;90.40;;;;;;4971094;28;20039;-82
2023/09/27 05:17:07;;;;;;;2.35;2.15;;;10.10;99.90;;;;;;4963864;28;20167;-80
2023/09/27 05:19:33;;;;;;;1.95;1.83;;;10.00;99.90;;;;;;4974047;28;20035;-80
2023/09/27 05:21:59;;;;;;;11.90;2.88;;;10.00;99.90;;;;;;4970768;28;20035;-79
2023/09/27 05:24:26;;;;;;;0.75;0.70;;;9.90;99.90;;;;;;4971580;28;20038;-81
2023/09/27 05:26:52;;;;;;;2.08;1.80;;;9.80;99.90;;;;;;4956223;28;20050;-80
2023/09/27 05:29:19;;;;;;;1.55;1.45;;;9.80;99.90;;;;;;4967145;28;20035;-80
2023/09/27 05:31:45;;;;;;;1.42;1.33;;;9.70;99.90;;;;;;4963143;28;20043;-81
2023/09/27 05:34:12;;;;;;;2.40;2.15;;;9.70;99.90;;;;;;4959642;28;20061;-81
2023/09/27 05:36:40;;;;;;;1.90;1.73;;;9.60;99.90;;;;;;4978121;28;20038;-81
2023/09/27 05:39:08;;;;;;;2.45;2.25;;;9.60;99.90;;;;;;4969749;28;20043;-81
2023/09/27 05:41:35;;;;;;;2.10;1.55;;;9.60;99.90;;;;;;4957596;28;20034;-82
2023/09/27 05:44:02;;;;;;;1.65;1.55;;;9.70;99.90;;;;;;4971162;28;20031;-82
2023/09/27 05:46:29;;;;;;;2.05;1.90;;;9.70;99.90;;;;;;4966283;28;20041;-82
2023/09/27 05:48:55;;;;;;;1.42;1.33;;;9.80;99.90;;;;;;4959706;28;20498;-82
2023/09/27 05:51:22;;;;;;;2.97;1.65;;;9.70;99.90;;;;;;4977183;28;20039;-82
2023/09/27 05:53:52;;;;;;;4.68;2.05;;;9.80;99.90;;;;;;4965841;28;20404;-81
2023/09/27 05:56:18;;;;;;;5.85;0.80;;;9.80;99.90;;;;;;4968209;28;20042;-81
2023/09/27 05:58:45;;;;;;;2.92;1.17;;;9.90;99.90;;;;;;4979565;28;20031;-81
2023/09/27 06:01:12;;;;;;;5.57;2.55;;;9.90;99.90;;;;;;4965371;28;20038;-81
2023/09/27 06:03:38;;;;;;;3.00;2.67;;;9.90;92.30;;;;;;4975850;28;20038;-80
2023/09/27 06:06:05;;;;;;;1.05;0.90;;;9.90;80.90;;;;;;4968350;28;20047;-80
2023/09/27 06:08:31;;;;;;;1.73;1.63;;;10.00;71.20;;;;;;4958514;28;20053;-82
2023/09/27 06:10:59;;;;;;;0.55;0.55;;;10.00;56.20;;;;;;4971757;28;20042;-81
2023/09/27 06:13:26;;;;;;;3.08;2.78;;;10.10;29.60;;;;;;4965993;28;20464;-81
2023/09/27 06:15:54;;;;;;;1.45;0.93;;;10.10;8.50;;;;;;4962819;28;20451;-81
2023/09/27 06:18:21;;;;;;;1.48;1.38;;;10.20;1.00;;;;;;4967445;28;20043;-81
2023/09/27 06:20:47;;;;;;;5.88;1.30;;;10.20;1.00;;;;;;4947105;28;20138;-80
2023/09/27 06:23:14;;;;;;;1.08;1.02;;;10.30;1.00;;;;;;4964498;28;20042;-80
2023/09/27 06:25:43;;;;;;;4.05;2.83;;;10.40;1.00;;;;;;4962819;28;20030;-80
2023/09/27 06:28:13;;;;;;;2.13;1.67;;;10.60;1.00;;;;;;4972499;28;20042;-80
2023/09/27 06:30:40;;;;;;;1.83;1.73;;;10.70;1.00;;;;;;4951701;28;20050;-79
2023/09/27 06:33:12;;;;;;;2.20;2.00;;;10.80;1.00;;;;;;4970589;28;20352;-79
2023/09/27 06:35:39;;;;;;;1.95;1.85;;;10.90;1.00;;;;;;4973447;28;20066;-80
2023/09/27 06:38:06;;;;;;;5.22;2.13;;;11.10;1.00;;;;;;4956993;28;20054;-80
2023/09/27 06:40:32;;;;;;;2.30;2.08;;;11.20;1.00;;;;;;4966152;28;20471;-80
2023/09/27 06:42:59;;;;;;;2.83;2.42;;;11.40;1.00;;;;;;4973371;28;20055;-80
2023/09/27 06:45:28;;;;;;;8.23;2.58;;;11.50;99.90;;;;;;4975650;28;20471;-80
2023/09/27 06:47:55;;;;;;;3.13;2.85;;;11.60;99.90;;;;;;4972574;28;20114;-80
2023/09/27 06:50:22;;;;;;;2.17;1.33;;;11.70;99.90;;;;;;4964548;28;20026;-79
2023/09/27 06:52:48;;;;;;;0.80;0.80;;;11.70;99.90;;;;;;4973324;28;20061;-81
2023/09/27 06:55:16;;;;;;;1.20;1.10;;;11.90;99.90;;;;;;4971715;28;20041;-80
2023/09/27 06:57:50;;;;;;;4.18;2.72;;;12.10;99.90;;;;;;4970778;28;20062;-80
2023/09/27 07:00:18;;;;;;;2.45;1.80;;;12.20;99.90;;;;;;4955851;28;20065;-81
2023/09/27 07:02:48;;;;;;;2.50;1.98;;;12.30;99.90;;;;;;4974055;28;20043;-82
2023/09/27 07:05:15;;;;;;;1.27;1.13;;;12.40;99.90;;;;;;4972485;28;20095;-81
2023/09/27 07:07:41;;;;;;;3.58;2.90;;;12.60;99.90;;;;;;4977921;28;20038;-80
2023/09/27 07:10:10;;;;;;;3.20;1.40;;;12.70;99.90;;;;;;4973556;28;20042;-80
2023/09/27 07:12:36;;;;;;;2.15;1.35;;;12.90;99.90;;;;;;4962829;28;20057;-81
2023/09/27 07:15:12;;;;;;;1.08;0.95;;;13.10;99.90;;;;;;4968287;28;20034;-80
2023/09/27 07:17:39;;;;;;;1.83;1.45;;;13.30;99.90;;;;;;4954146;28;20050;-81
2023/09/27 07:20:23;;;;;;;3.33;1.98;;;13.50;99.90;;;;;;4965170;28;20035;-81
2023/09/27 07:22:50;;;;;;;1.80;1.70;;;13.60;96.70;;;;;;4958415;28;20175;-81
2023/09/27 07:25:18;;;;;;;3.20;2.58;;;13.70;77.90;;;;;;4960443;28;20047;-82
2023/09/27 07:27:46;;;;;;;8.93;2.25;;;13.80;73.40;;;;;;4965514;28;20043;-81
2023/09/27 07:30:17;;;;;;;3.20;2.22;;;14.00;51.80;;;;;;4957690;28;20058;-81
2023/09/27 07:32:45;;;;;;;4.65;1.77;;;14.20;43.70;;;;;;4964790;28;20058;-81
2023/09/27 07:35:14;;;;;;;2.40;2.08;;;14.40;19.80;;;;;;4973082;28;20432;-81
2023/09/27 07:37:44;;;;;;;3.40;2.95;;;14.60;1.00;;;;;;4962224;28;20040;-81
2023/09/27 07:40:12;;;;;;;5.57;2.65;;;14.80;1.00;;;;;;4976820;28;20107;-82
2023/09/27 07:42:43;;;;;;;2.65;1.98;;;15.00;1.00;;;;;;4956231;28;20060;-81
2023/09/27 07:45:32;;;;;;;8.30;3.05;;;15.30;1.00;;;;;;4949014;28;20047;-81
2023/09/27 07:47:59;;;;;;;2.28;1.83;;;15.60;1.00;;;;;;4969455;28;20043;-81
2023/09/27 07:50:28;;;;;;;7.50;1.48;;;16.00;1.00;;;;;;4974932;28;20035;-83
2023/09/27 07:52:55;;;;;;;2.40;1.48;;;16.40;99.90;;;;;;4966191;28;20039;-81
2023/09/27 07:55:21;;;;;;;4.63;2.88;;;16.80;99.90;;;;;;4966759;28;20440;-82
2023/09/27 07:57:49;;;;;;;8.93;2.22;;;17.00;99.90;;;;;;4935534;28;20043;-82
2023/09/27 08:00:16;;;;;;;3.38;2.15;;;17.40;99.90;;;;;;4957257;28;20050;-82
2023/09/27 08:02:43;;;;;;;1.90;1.77;;;17.40;99.90;;;;;;4951986;28;20027;-81
2023/09/27 08:05:10;;;;;;;1.15;1.05;;;17.80;99.90;;;;;;4962833;28;20042;-82
2023/09/27 08:07:37;;;;;;;1.60;1.30;;;17.70;99.90;;;;;;4963293;28;20042;-81
2023/09/27 08:10:04;;;;;;;1.10;0.95;;;18.10;54.70;;;;;;4953024;28;20484;-81
2023/09/27 08:12:31;;;;;;;3.58;1.98;;;18.00;7.10;;;;;;4952369;28;20062;-80
2023/09/27 08:14:59;;;;;;;1.35;1.25;;;17.90;22.20;;;;;;4977381;28;20054;-82
2023/09/27 08:17:26;;;;;;;1.52;1.33;;;17.90;50.80;;;;;;4973926;28;20038;-81
2023/09/27 08:19:53;;;;;;;1.67;1.08;;;18.30;15.10;;;;;;4940561;28;20047;-82
2023/09/27 08:22:19;;;;;;;4.43;2.92;;;18.60;1.00;;;;;;4949888;28;20042;-81
2023/09/27 08:24:45;;;;;;;1.67;1.58;;;18.80;1.00;;;;;;4968922;28;20037;-81
2023/09/27 08:27:11;;;;;;;1.25;1.15;;;19.10;1.00;;;;;;4974504;28;20030;-82
2023/09/27 08:29:37;;;;;;;1.63;1.25;;;19.00;1.00;;;;;;4975939;28;20034;-81
2023/09/27 08:32:06;;;;;;;2.63;1.35;;;18.60;1.00;;;;;;4975640;28;20050;-81
2023/09/27 08:34:33;;;;;;;2.05;1.58;;;18.10;1.00;;;;;;4971742;28;20082;-81
2023/09/27 08:36:59;;;;;;;3.97;2.67;;;18.10;38.70;;;;;;4948458;28;20039;-81
2023/09/27 08:39:27;;;;;;;1.65;1.50;;;18.60;15.90;;;;;;4968269;28;20035;-81
2023/09/27 08:41:58;;;;;;;1.52;1.42;;;18.80;1.00;;;;;;4972396;28;20034;-81
2023/09/27 08:44:28;;;;;;;1.30;1.02;;;18.80;1.00;;;;;;4974906;28;20366;-82
2023/09/27 08:46:56;;;;;;;4.47;3.17;;;18.80;1.00;;;;;;4969045;28;20035;-81
2023/09/27 08:49:24;;;;;;;1.83;1.55;;;18.30;1.00;;;;;;4964013;28;20281;-81
2023/09/27 08:51:52;;;;;;;1.10;0.77;;;18.30;1.00;;;;;;4970969;28;20031;-83
2023/09/27 08:54:20;;;;;;;2.28;1.67;;;18.30;1.00;;;;;;4970191;28;20460;-80
2023/09/27 08:56:48;;;;;;;2.17;1.20;;;18.40;1.00;;;;;;4966395;28;20023;-83
2023/09/27 08:59:15;;;;;;;2.13;1.38;;;18.40;1.00;;;;;;4972724;28;20041;-81
2023/09/27 09:01:43;;;;;;;1.40;1.25;;;19.10;1.00;;;;;;4957472;28;20057;-81
2023/09/27 09:04:11;;;;;;;1.75;1.45;;;19.40;1.00;;;;;;4980868;28;20475;-82
2023/09/27 09:06:38;;;;;;;2.97;2.25;;;19.60;1.00;;;;;;4962888;28;20467;-83
2023/09/27 09:09:11;;;;;;;1.83;1.15;;;20.00;99.90;;;;;;4972537;28;20042;-82
2023/09/27 09:11:43;;;;;;;4.88;1.40;;;20.30;99.90;;;;;;4960325;28;20039;-82
2023/09/27 09:14:22;;;;;;;1.55;1.42;;;20.70;99.90;;;;;;4930873;28;20042;-82
2023/09/27 09:16:52;;;;;;;3.33;1.27;;;21.40;99.90;;;;;;4969966;28;20034;-82
2023/09/27 09:19:24;;;;;;;3.92;1.27;;;21.60;99.90;;;;;;4953534;28;20047;-81
2023/09/27 09:22:02;;;;;;;6.13;1.02;;;21.90;99.90;;;;;;4956801;28;20049;-82
2023/09/27 09:24:29;;;;;;;1.95;1.58;;;22.00;99.90;;;;;;4976373;28;20045;-82
2023/09/27 09:27:15;;;;;;;0.65;0.60;;;22.40;99.90;;;;;;4976525;28;20079;-83
2023/09/27 09:29:52;;;;;;;2.08;1.60;;;21.90;99.90;;;;;;4969662;28;20046;-82
2023/09/27 09:32:21;;;;;;;0.70;0.70;;;21.40;99.90;;;;;;4966372;28;20098;-81
2023/09/27 09:34:53;;;;;;;2.10;1.05;;;21.20;99.90;;;;;;4955723;28;20051;-82
2023/09/27 09:37:23;;;;;;;1.80;1.70;;;20.70;99.90;;;;;;4970355;28;20042;-82
2023/09/27 09:40:05;;;;;;;1.83;1.30;;;20.90;99.90;;;;;;4965483;28;20353;-83
2023/09/27 09:42:34;;;;;;;1.05;0.93;;;21.30;99.90;;;;;;4959354;28;20039;-83
2023/09/27 09:45:06;;;;;;;;;;;21.30;99.90;;;;;;4981848;28;20046;-83
2023/09/27 09:47:35;;;;;;;2.08;1.90;;;20.90;99.90;;;;;;4984649;28;20389;-81
2023/09/27 09:50:06;;;;;;;1.52;0.73;;;20.50;99.90;;;;;;4976677;28;20039;-82
2023/09/27 09:52:35;;;;;;;0.65;0.60;;;19.90;99.90;;;;;;4958259;28;20492;-83
2023/09/27 09:55:06;;;;;;;1.40;0.50;;;19.60;99.90;;;;;;4967345;28;20037;-82
2023/09/27 09:57:36;;;;;;;1.42;1.33;;;19.60;99.90;;;;;;4981872;28;20036;-82
2023/09/27 10:00:17;;;;;;;1.15;1.02;;;19.90;99.90;;;;;;4955212;28;20142;-82
2023/09/27 10:02:52;;;;;;;1.25;0.88;;;20.30;99.90;;;;;;4969452;28;20038;-82
2023/09/27 10:05:23;;;;;;;1.45;1.02;;;20.60;99.90;;;;;;4952040;28;20385;-82
2023/09/27 10:07:52;;;;;;;0.63;0.63;;;20.90;99.90;;;;;;4962351;28;20047;-83
2023/09/27 10:10:19;;;;;;;1.42;0.88;;;21.10;99.90;;;;;;4949084;28;20043;-83
2023/09/27 10:12:47;;;;;;;1.42;0.95;;;21.30;99.90;;;;;;4957364;28;20034;-81
2023/09/27 10:15:17;;;;;;;1.05;0.93;;;21.40;99.90;;;;;;4961054;28;20431;-81
2023/09/27 10:17:43;;;;;;;2.23;1.63;;;21.50;99.90;;;;;;4969651;28;20357;-85
2023/09/27 10:20:14;;;;;;;4.10;1.25;;;21.20;99.90;;;;;;4969569;28;20035;-84
2023/09/27 10:22:41;;;;;;;0.55;0.55;;;21.30;99.90;;;;;;4966128;28;20046;-82
2023/09/27 10:25:31;;;;;;;0.68;0.68;;;21.40;99.90;;;;;;4967169;28;20034;-82
2023/09/27 10:28:04;;;;;;;1.65;0.93;;;21.20;99.90;;;;;;4966195;28;20047;-82
2023/09/27 10:30:40;;;;;;;1.15;1.05;;;21.20;99.90;;;;;;4964661;28;20047;-81
2023/09/27 10:33:15;;;;;;;0.52;0.38;;;21.10;99.90;;;;;;4962086;28;20034;-81
2023/09/27 10:35:47;;;;;;;0.80;0.60;;;21.30;99.90;;;;;;4967957;28;20034;-82
2023/09/27 10:38:13;;;;;;;1.35;0.80;;;21.60;99.90;;;;;;4983984;28;20057;-80
2023/09/27 10:40:46;;;;;;;0.38;0.38;;;21.90;99.90;;;;;;4979319;28;20065;-80
2023/09/27 10:43:34;;;;;;;0.20;0.20;;;21.80;99.90;;;;;;4971983;28;20053;-80
2023/09/27 10:46:04;;;;;;;0.82;0.60;;;21.80;99.90;;;;;;4970054;28;20042;-81
2023/09/27 10:48:35;;;;;;;0.68;0.68;;;21.50;99.90;;;;;;4973675;28;20042;-82
2023/09/27 10:51:02;;;;;;;1.17;0.70;;;21.40;99.90;;;;;;4960795;28;20050;-82
2023/09/27 10:53:32;;;;;;;1.17;0.68;;;21.60;99.90;;;;;;4973076;28;20062;-80
2023/09/27 10:55:58;;;;;;;0.28;0.28;;;21.80;99.90;;;;;;4966509;28;20034;-80
2023/09/27 10:58:25;;;;;;;0.65;0.65;;;22.00;99.90;;;;;;4965020;28;20039;-80
2023/09/27 11:00:56;;;;;;;0.75;0.70;;;22.30;99.90;;;;;;4973928;28;20046;-79
2023/09/27 11:03:23;;;;;;;0.75;0.75;;;22.40;99.90;;;;;;4971887;28;20031;-80
2023/09/27 11:05:50;;;;;;;1.27;0.70;;;22.50;99.90;;;;;;4944457;28;20053;-81
2023/09/27 11:08:21;;;;;;;0.90;0.90;;;22.40;99.90;;;;;;4964649;28;20043;-80
2023/09/27 11:10:47;;;;;;;6.43;1.60;;;22.50;99.90;;;;;;4965763;28;20046;-81
2023/09/27 11:13:13;;;;;;;0.98;0.93;;;22.50;99.90;;;;;;4977313;28;20026;-80
2023/09/27 11:15:41;;;;;;;0.40;0.40;;;22.50;99.90;;;;;;4977957;28;20035;-81
2023/09/27 11:18:08;;;;;;;0.68;0.68;;;22.50;99.90;;;;;;4963433;28;20039;-81
2023/09/27 11:20:34;;;;;;;0.50;0.50;;;22.60;99.90;;;;;;4971275;28;20042;-81
2023/09/27 11:23:04;;;;;;;1.38;0.82;;;22.90;91.90;;;;;;4965051;28;20039;-82
2023/09/27 11:25:32;;;;;;;0.60;0.50;;;23.00;99.80;;;;;;4975113;28;20033;-80
2023/09/27 11:27:59;;;;;;;0.68;0.60;;;23.10;79.20;;;;;;4972295;28;20278;-82
2023/09/27 11:30:26;;;;;;;1.88;0.50;;;23.20;83.70;;;;;;4954826;28;20035;-79
2023/09/27 11:32:52;;;;;;;0.50;0.50;;;23.20;55.50;;;;;;4959630;28;20030;-81
2023/09/27 11:35:20;;;;;;;0.30;0.30;;;23.30;69.30;;;;;;4973413;28;20134;-81
2023/09/27 11:37:47;;;;;;;0.52;0.52;;;23.50;68.10;;;;;;4972485;28;20046;-80
2023/09/27 11:40:14;;;;;;;0.32;0.32;;;23.60;49.40;;;;;;4962971;28;20523;-81
2023/09/27 11:42:40;;;;;;;3.70;1.55;;;23.60;44.40;;;;;;4956400;28;20034;-81
2023/09/27 11:45:08;;;;;;;0.40;0.40;;;23.30;53.60;;;;;;4957688;28;20042;-80
2023/09/27 11:47:48;;;;;;;1.08;0.60;;;23.10;69.90;;;;;;4967546;28;20038;-80
2023/09/27 11:50:15;;;;;;;0.28;0.28;;;22.90;83.50;;;;;;4963576;28;20035;-81
2023/09/27 11:52:48;;;;;;;1.08;0.75;;;22.90;77.60;;;;;;4959847;28;20028;-81
2023/09/27 11:55:15;;;;;;;1.45;0.95;;;23.00;81.10;;;;;;4971124;28;20038;-81
2023/09/27 11:57:42;;;;;;;0.40;0.40;;;23.30;56.20;;;;;;4970196;28;20037;-80
2023/09/27 12:00:10;;;;;;;0.80;0.60;;;23.50;49.80;;;;;;4977535;28;20035;-81
2023/09/27 12:02:36;;;;;;;1.02;1.00;;;23.70;38.90;;;;;;4968034;28;20059;-79
2023/09/27 12:05:05;;;;;;;0.88;0.40;;;23.80;34.10;;;;;;4974577;28;20046;-80
2023/09/27 12:07:32;;;;;;;1.20;1.08;;;24.10;44.30;;;;;;4974076;28;20039;-82
2023/09/27 12:09:58;;;;;;;0.82;0.43;;;24.10;25.50;;;;;;4975364;28;20039;-81
2023/09/27 12:12:24;;;;;;;1.00;0.88;;;24.00;12.80;;;;;;4953504;28;20054;-82
2023/09/27 12:14:51;;;;;;;0.35;0.35;;;23.90;23.00;;;;;;4957759;28;20148;-82
2023/09/27 12:17:17;;;;;;;0.68;0.40;;;23.90;18.30;;;;;;4990487;28;20031;-82
2023/09/27 12:19:45;;;;;;;0.38;0.30;;;23.80;20.60;;;;;;4955685;28;20050;-82
2023/09/27 12:22:11;;;;;;;1.63;1.05;;;23.60;24.60;;;;;;4966665;28;20043;-82
2023/09/27 12:24:39;;;;;;;0.30;0.25;;;23.70;34.00;;;;;;4964064;28;20054;-81
2023/09/27 12:27:06;;;;;;;0.17;0.17;;;23.90;26.10;;;;;;4956783;28;20035;-81
2023/09/27 12:29:32;;;;;;;1.05;0.85;;;24.00;22.00;;;;;;4958839;28;20080;-81
2023/09/27 12:32:00;;;;;;;0.43;0.20;;;24.20;13.60;;;;;;4966457;28;20039;-83
2023/09/27 12:34:26;;;;;;;0.85;0.85;;;24.30;15.30;;;;;;4963262;28;20051;-81
2023/09/27 12:36:52;;;;;;;0.55;0.50;;;24.30;12.40;;;;;;4951990;28;20042;-82
2023/09/27 12:39:20;;;;;;;6.07;1.33;;;24.20;12.50;;;;;;4955192;28;20081;-82
2023/09/27 12:41:46;;;;;;;0.30;0.30;;;24.20;16.70;;;;;;4963878;28;20041;-82
2023/09/27 12:44:12;;;;;;;0.45;0.45;;;24.40;15.60;;;;;;4961446;28;20043;-80
2023/09/27 12:46:39;;;;;;;0.50;0.50;;;24.50;1.00;;;;;;4963559;28;20033;-82
2023/09/27 12:49:05;;;;;;;0.30;0.30;;;24.20;1.00;;;;;;4946686;28;20047;-82
2023/09/27 12:51:31;;;;;;;0.40;0.40;;;24.10;7.20;;;;;;4959249;28;20027;-82
2023/09/27 12:53:57;;;;;;;1.17;1.08;;;24.10;12.20;;;;;;4965560;28;20034;-84